Terminal Aerodrome Forecast
Issued by NWS St Louis, MO

Home | Current Version | Previous Version | Text Only | Print | Product List | Glossary On
Versions: 1 2 3 4 5 6 7 8 9 10 11 12 13 14 15 16 17 18 19
000
FTUS43 KLSX 241028 AAA
TAFCOU
TAF AMD
KCOU 241028Z 2410/2506 31005KT P6SM SCT040 BKN080
     FM241500 31008KT P6SM SCT020 BKN035
     FM241800 31011KT P6SM VCSH BKN035
     FM250100 31006KT P6SM BKN040=

USA.gov is the U.S. government's official web portal to all federal, state and local government web resources and services.